sensor_id;sensor_type;location;lat;lon;timestamp;P1;durP1;ratioP1;P2;durP2;ratioP2
8964;SDS011;4517;49.020;12.066;2022-11-20T00:00:10;49.33;;;21.70;;
8964;SDS011;4517;49.020;12.066;2022-11-20T00:02:36;42.50;;;23.20;;
8964;SDS011;4517;49.020;12.066;2022-11-20T00:05:02;44.90;;;24.40;;
8964;SDS011;4517;49.020;12.066;2022-11-20T00:07:28;43.30;;;23.10;;
8964;SDS011;4517;49.020;12.066;2022-11-20T00:09:53;47.87;;;24.23;;
8964;SDS011;4517;49.020;12.066;2022-11-20T00:12:19;52.83;;;24.50;;
8964;SDS011;4517;49.020;12.066;2022-11-20T00:14:44;43.50;;;22.10;;
8964;SDS011;4517;49.020;12.066;2022-11-20T00:17:11;43.60;;;23.23;;
8964;SDS011;4517;49.020;12.066;2022-11-20T00:19:36;45.87;;;23.13;;
8964;SDS011;4517;49.020;12.066;2022-11-20T00:22:02;44.50;;;23.47;;
8964;SDS011;4517;49.020;12.066;2022-11-20T00:24:27;45.73;;;21.67;;
8964;SDS011;4517;49.020;12.066;2022-11-20T00:26:53;51.80;;;25.90;;
8964;SDS011;4517;49.020;12.066;2022-11-20T00:29:18;53.20;;;22.50;;
8964;SDS011;4517;49.020;12.066;2022-11-20T00:31:44;44.53;;;21.03;;
8964;SDS011;4517;49.020;12.066;2022-11-20T00:34:09;45.07;;;23.07;;
8964;SDS011;4517;49.020;12.066;2022-11-20T00:36:35;47.37;;;23.67;;
8964;SDS011;4517;49.020;12.066;2022-11-20T00:39:01;46.27;;;23.70;;
8964;SDS011;4517;49.020;12.066;2022-11-20T00:41:27;47.47;;;22.90;;
8964;SDS011;4517;49.020;12.066;2022-11-20T00:43:54;50.77;;;23.63;;
8964;SDS011;4517;49.020;12.066;2022-11-20T00:46:21;48.07;;;24.90;;
8964;SDS011;4517;49.020;12.066;2022-11-20T00:48:49;42.57;;;21.40;;
8964;SDS011;4517;49.020;12.066;2022-11-20T00:51:16;41.70;;;21.87;;
8964;SDS011;4517;49.020;12.066;2022-11-20T00:53:44;42.57;;;22.27;;
8964;SDS011;4517;49.020;12.066;2022-11-20T00:56:11;40.90;;;22.43;;
8964;SDS011;4517;49.020;12.066;2022-11-20T00:58:41;42.67;;;22.03;;
8964;SDS011;4517;49.020;12.066;2022-11-20T01:01:09;47.30;;;23.50;;
8964;SDS011;4517;49.020;12.066;2022-11-20T01:03:40;46.90;;;21.70;;
8964;SDS011;4517;49.020;12.066;2022-11-20T01:06:10;41.57;;;21.37;;
8964;SDS011;4517;49.020;12.066;2022-11-20T01:08:41;47.83;;;21.30;;
8964;SDS011;4517;49.020;12.066;2022-11-20T01:11:09;44.73;;;23.20;;
8964;SDS011;4517;49.020;12.066;2022-11-20T01:13:38;47.63;;;21.70;;
8964;SDS011;4517;49.020;12.066;2022-11-20T01:18:29;44.17;;;20.60;;
8964;SDS011;4517;49.020;12.066;2022-11-20T01:20:55;42.63;;;20.53;;
8964;SDS011;4517;49.020;12.066;2022-11-20T01:23:24;39.10;;;20.33;;
8964;SDS011;4517;49.020;12.066;2022-11-20T01:25:50;41.43;;;20.00;;
8964;SDS011;4517;49.020;12.066;2022-11-20T01:28:15;37.00;;;19.90;;
8964;SDS011;4517;49.020;12.066;2022-11-20T01:30:41;37.40;;;18.30;;
8964;SDS011;4517;49.020;12.066;2022-11-20T01:33:07;44.30;;;19.70;;
8964;SDS011;4517;49.020;12.066;2022-11-20T01:35:32;41.00;;;20.30;;
8964;SDS011;4517;49.020;12.066;2022-11-20T01:37:58;41.17;;;20.33;;
8964;SDS011;4517;49.020;12.066;2022-11-20T01:40:23;42.33;;;20.80;;
8964;SDS011;4517;49.020;12.066;2022-11-20T01:42:52;41.40;;;19.70;;
8964;SDS011;4517;49.020;12.066;2022-11-20T01:48:36;35.30;;;18.70;;
8964;SDS011;4517;49.020;12.066;2022-11-20T01:51:08;40.23;;;19.33;;
8964;SDS011;4517;49.020;12.066;2022-11-20T01:53:42;38.97;;;19.53;;
8964;SDS011;4517;49.020;12.066;2022-11-20T01:56:09;32.60;;;18.20;;
8964;SDS011;4517;49.020;12.066;2022-11-20T01:58:37;39.53;;;20.93;;
8964;SDS011;4517;49.020;12.066;2022-11-20T02:01:06;39.10;;;19.97;;
8964;SDS011;4517;49.020;12.066;2022-11-20T02:03:32;38.40;;;20.70;;
8964;SDS011;4517;49.020;12.066;2022-11-20T02:06:15;35.67;;;19.03;;
8964;SDS011;4517;49.020;12.066;2022-11-20T02:08:45;37.07;;;18.80;;
8964;SDS011;4517;49.020;12.066;2022-11-20T02:11:11;34.97;;;18.77;;
8964;SDS011;4517;49.020;12.066;2022-11-20T02:13:37;38.67;;;19.40;;
8964;SDS011;4517;49.020;12.066;2022-11-20T02:18:44;40.17;;;18.80;;
8964;SDS011;4517;49.020;12.066;2022-11-20T02:26:38;39.87;;;20.10;;
8964;SDS011;4517;49.020;12.066;2022-11-20T02:29:11;37.43;;;20.40;;
8964;SDS011;4517;49.020;12.066;2022-11-20T02:31:41;42.90;;;20.90;;
8964;SDS011;4517;49.020;12.066;2022-11-20T02:34:08;34.20;;;19.03;;
8964;SDS011;4517;49.020;12.066;2022-11-20T02:36:34;40.10;;;19.73;;
8964;SDS011;4517;49.020;12.066;2022-11-20T02:39:02;41.70;;;19.50;;
8964;SDS011;4517;49.020;12.066;2022-11-20T02:41:33;42.43;;;21.67;;
8964;SDS011;4517;49.020;12.066;2022-11-20T02:44:00;39.43;;;19.60;;
8964;SDS011;4517;49.020;12.066;2022-11-20T02:46:26;42.70;;;20.30;;
8964;SDS011;4517;49.020;12.066;2022-11-20T02:48:52;36.50;;;19.70;;
8964;SDS011;4517;49.020;12.066;2022-11-20T02:51:17;45.30;;;22.40;;
8964;SDS011;4517;49.020;12.066;2022-11-20T02:53:43;40.00;;;21.87;;
8964;SDS011;4517;49.020;12.066;2022-11-20T02:56:09;41.53;;;20.83;;
8964;SDS011;4517;49.020;12.066;2022-11-20T02:58:34;46.37;;;21.40;;
8964;SDS011;4517;49.020;12.066;2022-11-20T03:01:00;39.17;;;20.00;;
8964;SDS011;4517;49.020;12.066;2022-11-20T03:03:25;41.37;;;20.50;;
8964;SDS011;4517;49.020;12.066;2022-11-20T03:05:51;33.00;;;18.50;;
8964;SDS011;4517;49.020;12.066;2022-11-20T03:08:16;38.33;;;19.53;;
8964;SDS011;4517;49.020;12.066;2022-11-20T03:10:42;36.97;;;20.33;;
8964;SDS011;4517;49.020;12.066;2022-11-20T03:13:07;41.43;;;20.40;;
8964;SDS011;4517;49.020;12.066;2022-11-20T03:15:33;41.27;;;21.20;;
8964;SDS011;4517;49.020;12.066;2022-11-20T03:18:00;39.50;;;20.03;;
8964;SDS011;4517;49.020;12.066;2022-11-20T03:20:25;36.40;;;19.93;;
8964;SDS011;4517;49.020;12.066;2022-11-20T03:22:57;42.17;;;20.00;;
8964;SDS011;4517;49.020;12.066;2022-11-20T03:25:22;43.47;;;19.93;;
8964;SDS011;4517;49.020;12.066;2022-11-20T03:27:48;33.97;;;18.00;;
8964;SDS011;4517;49.020;12.066;2022-11-20T03:30:14;41.70;;;19.53;;
8964;SDS011;4517;49.020;12.066;2022-11-20T03:32:40;34.07;;;18.00;;
8964;SDS011;4517;49.020;12.066;2022-11-20T03:35:05;37.50;;;18.23;;
8964;SDS011;4517;49.020;12.066;2022-11-20T03:37:31;36.10;;;19.33;;
8964;SDS011;4517;49.020;12.066;2022-11-20T03:39:58;39.47;;;20.87;;
8964;SDS011;4517;49.020;12.066;2022-11-20T03:42:23;44.57;;;20.07;;
8964;SDS011;4517;49.020;12.066;2022-11-20T03:45:08;39.80;;;19.80;;
8964;SDS011;4517;49.020;12.066;2022-11-20T03:47:33;41.70;;;20.40;;
8964;SDS011;4517;49.020;12.066;2022-11-20T03:49:59;40.17;;;20.57;;
8964;SDS011;4517;49.020;12.066;2022-11-20T03:52:24;37.47;;;19.77;;
8964;SDS011;4517;49.020;12.066;2022-11-20T03:54:50;39.60;;;20.43;;
8964;SDS011;4517;49.020;12.066;2022-11-20T03:57:15;44.27;;;20.47;;
8964;SDS011;4517;49.020;12.066;2022-11-20T03:59:41;40.77;;;19.30;;
8964;SDS011;4517;49.020;12.066;2022-11-20T04:02:06;45.00;;;19.77;;
8964;SDS011;4517;49.020;12.066;2022-11-20T04:04:32;42.90;;;20.60;;
8964;SDS011;4517;49.020;12.066;2022-11-20T04:06:57;38.57;;;19.43;;
8964;SDS011;4517;49.020;12.066;2022-11-20T04:09:23;39.60;;;20.00;;
8964;SDS011;4517;49.020;12.066;2022-11-20T04:11:48;43.53;;;22.27;;
8964;SDS011;4517;49.020;12.066;2022-11-20T04:14:14;44.17;;;21.07;;
8964;SDS011;4517;49.020;12.066;2022-11-20T04:16:41;39.07;;;19.70;;
8964;SDS011;4517;49.020;12.066;2022-11-20T04:19:10;40.63;;;20.27;;
8964;SDS011;4517;49.020;12.066;2022-11-20T04:21:37;38.47;;;19.90;;
8964;SDS011;4517;49.020;12.066;2022-11-20T04:24:03;43.50;;;22.13;;
8964;SDS011;4517;49.020;12.066;2022-11-20T04:26:29;39.97;;;20.47;;
8964;SDS011;4517;49.020;12.066;2022-11-20T04:28:55;41.20;;;20.90;;
8964;SDS011;4517;49.020;12.066;2022-11-20T04:31:23;37.80;;;18.90;;
8964;SDS011;4517;49.020;12.066;2022-11-20T04:33:50;38.27;;;19.47;;
8964;SDS011;4517;49.020;12.066;2022-11-20T04:36:17;41.67;;;21.40;;
8964;SDS011;4517;49.020;12.066;2022-11-20T04:38:44;42.20;;;19.70;;
8964;SDS011;4517;49.020;12.066;2022-11-20T04:41:14;45.70;;;22.07;;
8964;SDS011;4517;49.020;12.066;2022-11-20T04:43:45;40.87;;;20.67;;
8964;SDS011;4517;49.020;12.066;2022-11-20T04:46:15;43.83;;;20.53;;
8964;SDS011;4517;49.020;12.066;2022-11-20T04:48:41;41.73;;;20.23;;
8964;SDS011;4517;49.020;12.066;2022-11-20T04:51:06;47.37;;;22.30;;
8964;SDS011;4517;49.020;12.066;2022-11-20T04:53:32;36.37;;;19.50;;
8964;SDS011;4517;49.020;12.066;2022-11-20T04:56:01;46.23;;;21.63;;
8964;SDS011;4517;49.020;12.066;2022-11-20T04:58:29;41.10;;;21.60;;
8964;SDS011;4517;49.020;12.066;2022-11-20T05:01:05;44.63;;;21.23;;
8964;SDS011;4517;49.020;12.066;2022-11-20T05:03:32;38.27;;;19.80;;
8964;SDS011;4517;49.020;12.066;2022-11-20T05:06:01;41.73;;;20.93;;
8964;SDS011;4517;49.020;12.066;2022-11-20T05:08:30;42.50;;;21.30;;
8964;SDS011;4517;49.020;12.066;2022-11-20T05:11:03;41.13;;;21.43;;
8964;SDS011;4517;49.020;12.066;2022-11-20T05:13:37;47.47;;;22.27;;
8964;SDS011;4517;49.020;12.066;2022-11-20T05:16:07;46.33;;;22.33;;
8964;SDS011;4517;49.020;12.066;2022-11-20T05:18:35;38.13;;;22.47;;
8964;SDS011;4517;49.020;12.066;2022-11-20T05:21:01;47.27;;;22.87;;
8964;SDS011;4517;49.020;12.066;2022-11-20T05:23:27;51.57;;;23.27;;
8964;SDS011;4517;49.020;12.066;2022-11-20T05:25:54;45.13;;;23.73;;
8964;SDS011;4517;49.020;12.066;2022-11-20T05:28:21;47.40;;;23.33;;
8964;SDS011;4517;49.020;12.066;2022-11-20T05:30:47;51.30;;;22.80;;
8964;SDS011;4517;49.020;12.066;2022-11-20T05:33:13;48.30;;;22.73;;
8964;SDS011;4517;49.020;12.066;2022-11-20T05:35:39;50.70;;;22.90;;
8964;SDS011;4517;49.020;12.066;2022-11-20T05:38:05;55.30;;;23.37;;
8964;SDS011;4517;49.020;12.066;2022-11-20T05:40:30;48.10;;;22.93;;
8964;SDS011;4517;49.020;12.066;2022-11-20T05:42:56;56.40;;;23.43;;
8964;SDS011;4517;49.020;12.066;2022-11-20T05:45:21;49.20;;;23.53;;
8964;SDS011;4517;49.020;12.066;2022-11-20T05:47:47;53.17;;;23.20;;
8964;SDS011;4517;49.020;12.066;2022-11-20T05:50:13;47.73;;;24.27;;
8964;SDS011;4517;49.020;12.066;2022-11-20T05:52:39;53.90;;;23.40;;
8964;SDS011;4517;49.020;12.066;2022-11-20T05:55:05;52.90;;;23.80;;
8964;SDS011;4517;49.020;12.066;2022-11-20T05:57:31;53.40;;;23.83;;
8964;SDS011;4517;49.020;12.066;2022-11-20T05:59:57;53.17;;;22.57;;
8964;SDS011;4517;49.020;12.066;2022-11-20T06:02:22;63.00;;;26.03;;
8964;SDS011;4517;49.020;12.066;2022-11-20T06:04:48;54.73;;;23.77;;
8964;SDS011;4517;49.020;12.066;2022-11-20T06:07:14;56.30;;;26.13;;
8964;SDS011;4517;49.020;12.066;2022-11-20T06:09:39;52.87;;;24.37;;
8964;SDS011;4517;49.020;12.066;2022-11-20T06:12:05;54.47;;;25.50;;
8964;SDS011;4517;49.020;12.066;2022-11-20T06:14:31;58.10;;;26.60;;
8964;SDS011;4517;49.020;12.066;2022-11-20T06:16:57;58.07;;;24.47;;
8964;SDS011;4517;49.020;12.066;2022-11-20T06:19:23;65.67;;;27.20;;
8964;SDS011;4517;49.020;12.066;2022-11-20T06:21:48;60.13;;;24.33;;
8964;SDS011;4517;49.020;12.066;2022-11-20T06:24:14;51.67;;;24.80;;
8964;SDS011;4517;49.020;12.066;2022-11-20T06:26:40;53.20;;;25.03;;
8964;SDS011;4517;49.020;12.066;2022-11-20T06:29:06;61.30;;;25.27;;
8964;SDS011;4517;49.020;12.066;2022-11-20T06:31:31;60.67;;;24.77;;
8964;SDS011;4517;49.020;12.066;2022-11-20T06:34:03;62.47;;;26.60;;
8964;SDS011;4517;49.020;12.066;2022-11-20T06:36:30;51.00;;;23.97;;
8964;SDS011;4517;49.020;12.066;2022-11-20T06:38:55;56.53;;;26.10;;
8964;SDS011;4517;49.020;12.066;2022-11-20T06:41:21;56.33;;;24.03;;
8964;SDS011;4517;49.020;12.066;2022-11-20T06:43:48;58.87;;;24.80;;
8964;SDS011;4517;49.020;12.066;2022-11-20T06:46:14;57.10;;;25.43;;
8964;SDS011;4517;49.020;12.066;2022-11-20T06:48:44;59.10;;;25.97;;
8964;SDS011;4517;49.020;12.066;2022-11-20T06:51:10;57.40;;;26.30;;
8964;SDS011;4517;49.020;12.066;2022-11-20T06:53:36;60.37;;;26.33;;
8964;SDS011;4517;49.020;12.066;2022-11-20T06:56:02;60.43;;;25.00;;
8964;SDS011;4517;49.020;12.066;2022-11-20T06:58:30;68.40;;;26.93;;
8964;SDS011;4517;49.020;12.066;2022-11-20T07:01:06;59.00;;;25.20;;
8964;SDS011;4517;49.020;12.066;2022-11-20T07:03:33;56.63;;;25.47;;
8964;SDS011;4517;49.020;12.066;2022-11-20T07:05:59;53.33;;;23.63;;
8964;SDS011;4517;49.020;12.066;2022-11-20T07:08:26;52.97;;;24.40;;
8964;SDS011;4517;49.020;12.066;2022-11-20T07:10:52;55.30;;;25.77;;
8964;SDS011;4517;49.020;12.066;2022-11-20T07:13:22;56.70;;;25.23;;
8964;SDS011;4517;49.020;12.066;2022-11-20T07:15:47;58.13;;;25.17;;
8964;SDS011;4517;49.020;12.066;2022-11-20T07:18:13;53.10;;;25.60;;
8964;SDS011;4517;49.020;12.066;2022-11-20T07:20:38;58.50;;;25.80;;
8964;SDS011;4517;49.020;12.066;2022-11-20T07:23:04;59.13;;;27.00;;
8964;SDS011;4517;49.020;12.066;2022-11-20T07:25:29;61.57;;;27.87;;
8964;SDS011;4517;49.020;12.066;2022-11-20T07:27:58;63.27;;;25.40;;
8964;SDS011;4517;49.020;12.066;2022-11-20T07:30:25;54.47;;;25.77;;
8964;SDS011;4517;49.020;12.066;2022-11-20T07:32:51;47.07;;;23.03;;
8964;SDS011;4517;49.020;12.066;2022-11-20T07:35:18;53.93;;;23.80;;
8964;SDS011;4517;49.020;12.066;2022-11-20T07:37:44;55.70;;;24.17;;
8964;SDS011;4517;49.020;12.066;2022-11-20T07:40:10;58.50;;;25.20;;
8964;SDS011;4517;49.020;12.066;2022-11-20T07:42:37;58.03;;;25.80;;
8964;SDS011;4517;49.020;12.066;2022-11-20T07:45:02;51.47;;;24.07;;
8964;SDS011;4517;49.020;12.066;2022-11-20T07:47:28;49.87;;;21.80;;
8964;SDS011;4517;49.020;12.066;2022-11-20T07:49:53;54.00;;;24.33;;
8964;SDS011;4517;49.020;12.066;2022-11-20T07:52:19;52.67;;;24.20;;
8964;SDS011;4517;49.020;12.066;2022-11-20T07:54:44;49.73;;;24.03;;
8964;SDS011;4517;49.020;12.066;2022-11-20T07:57:10;45.60;;;25.20;;
8964;SDS011;4517;49.020;12.066;2022-11-20T07:59:35;49.90;;;22.17;;
8964;SDS011;4517;49.020;12.066;2022-11-20T08:02:01;50.30;;;22.50;;
8964;SDS011;4517;49.020;12.066;2022-11-20T08:04:27;44.60;;;23.20;;
8964;SDS011;4517;49.020;12.066;2022-11-20T08:06:52;41.93;;;21.47;;
8964;SDS011;4517;49.020;12.066;2022-11-20T08:09:18;48.30;;;23.10;;
8964;SDS011;4517;49.020;12.066;2022-11-20T08:11:43;41.80;;;20.23;;
8964;SDS011;4517;49.020;12.066;2022-11-20T08:14:27;41.60;;;21.17;;
8964;SDS011;4517;49.020;12.066;2022-11-20T08:16:53;40.77;;;19.70;;
8964;SDS011;4517;49.020;12.066;2022-11-20T08:19:18;39.03;;;20.43;;
8964;SDS011;4517;49.020;12.066;2022-11-20T08:21:44;44.20;;;19.50;;
8964;SDS011;4517;49.020;12.066;2022-11-20T08:24:10;44.83;;;18.40;;
8964;SDS011;4517;49.020;12.066;2022-11-20T08:26:36;34.47;;;16.73;;
8964;SDS011;4517;49.020;12.066;2022-11-20T08:29:03;29.77;;;17.27;;
8964;SDS011;4517;49.020;12.066;2022-11-20T08:31:29;36.87;;;18.80;;
8964;SDS011;4517;49.020;12.066;2022-11-20T08:33:55;31.27;;;17.70;;
8964;SDS011;4517;49.020;12.066;2022-11-20T08:36:21;29.93;;;17.10;;
8964;SDS011;4517;49.020;12.066;2022-11-20T08:38:52;27.50;;;15.57;;
8964;SDS011;4517;49.020;12.066;2022-11-20T08:41:19;28.53;;;16.47;;
8964;SDS011;4517;49.020;12.066;2022-11-20T08:43:58;25.27;;;15.70;;
8964;SDS011;4517;49.020;12.066;2022-11-20T08:46:25;29.03;;;17.10;;
8964;SDS011;4517;49.020;12.066;2022-11-20T08:48:52;27.53;;;15.90;;
8964;SDS011;4517;49.020;12.066;2022-11-20T08:51:18;22.50;;;13.20;;
8964;SDS011;4517;49.020;12.066;2022-11-20T08:53:45;27.97;;;15.33;;
8964;SDS011;4517;49.020;12.066;2022-11-20T08:56:11;28.73;;;15.30;;
8964;SDS011;4517;49.020;12.066;2022-11-20T08:58:37;22.87;;;13.97;;
8964;SDS011;4517;49.020;12.066;2022-11-20T09:01:03;22.77;;;13.23;;
8964;SDS011;4517;49.020;12.066;2022-11-20T09:03:29;22.87;;;13.83;;
8964;SDS011;4517;49.020;12.066;2022-11-20T09:05:58;22.47;;;13.70;;
8964;SDS011;4517;49.020;12.066;2022-11-20T09:08:25;20.20;;;12.97;;
8964;SDS011;4517;49.020;12.066;2022-11-20T09:10:51;21.77;;;12.90;;
8964;SDS011;4517;49.020;12.066;2022-11-20T09:13:18;22.80;;;12.90;;
8964;SDS011;4517;49.020;12.066;2022-11-20T09:15:44;19.50;;;12.63;;
8964;SDS011;4517;49.020;12.066;2022-11-20T09:18:10;29.20;;;13.77;;
8964;SDS011;4517;49.020;12.066;2022-11-20T09:20:35;20.60;;;12.97;;
8964;SDS011;4517;49.020;12.066;2022-11-20T09:23:01;16.20;;;11.47;;
8964;SDS011;4517;49.020;12.066;2022-11-20T09:25:27;9.60;;;7.33;;
8964;SDS011;4517;49.020;12.066;2022-11-20T09:27:56;11.77;;;8.20;;
8964;SDS011;4517;49.020;12.066;2022-11-20T09:30:22;9.50;;;8.40;;
8964;SDS011;4517;49.020;12.066;2022-11-20T09:32:48;8.13;;;7.00;;
8964;SDS011;4517;49.020;12.066;2022-11-20T09:35:14;7.10;;;6.40;;
8964;SDS011;4517;49.020;12.066;2022-11-20T09:37:39;6.77;;;6.17;;
8964;SDS011;4517;49.020;12.066;2022-11-20T09:40:05;9.37;;;7.03;;
8964;SDS011;4517;49.020;12.066;2022-11-20T09:42:45;8.50;;;7.10;;
8964;SDS011;4517;49.020;12.066;2022-11-20T09:45:21;12.00;;;7.30;;
8964;SDS011;4517;49.020;12.066;2022-11-20T09:50:49;10.60;;;7.90;;
8964;SDS011;4517;49.020;12.066;2022-11-20T09:56:40;7.37;;;6.77;;
8964;SDS011;4517;49.020;12.066;2022-11-20T09:59:20;7.27;;;6.57;;
8964;SDS011;4517;49.020;12.066;2022-11-20T10:01:54;9.10;;;6.07;;
8964;SDS011;4517;49.020;12.066;2022-11-20T10:04:21;8.20;;;6.23;;
8964;SDS011;4517;49.020;12.066;2022-11-20T10:06:51;7.93;;;6.20;;
8964;SDS011;4517;49.020;12.066;2022-11-20T10:09:22;6.30;;;5.70;;
8964;SDS011;4517;49.020;12.066;2022-11-20T10:17:49;6.77;;;5.83;;
8964;SDS011;4517;49.020;12.066;2022-11-20T10:20:27;7.07;;;5.90;;
8964;SDS011;4517;49.020;12.066;2022-11-20T10:23:19;7.47;;;6.00;;
8964;SDS011;4517;49.020;12.066;2022-11-20T10:31:31;6.23;;;5.67;;
8964;SDS011;4517;49.020;12.066;2022-11-20T10:34:01;6.03;;;5.53;;
8964;SDS011;4517;49.020;12.066;2022-11-20T10:37:01;7.37;;;6.60;;
8964;SDS011;4517;49.020;12.066;2022-11-20T10:42:26;7.03;;;6.13;;
8964;SDS011;4517;49.020;12.066;2022-11-20T10:45:02;7.60;;;6.70;;
8964;SDS011;4517;49.020;12.066;2022-11-20T10:56:27;7.03;;;6.37;;
8964;SDS011;4517;49.020;12.066;2022-11-20T11:02:00;9.80;;;6.10;;
8964;SDS011;4517;49.020;12.066;2022-11-20T11:09:53;9.10;;;5.10;;
8964;SDS011;4517;49.020;12.066;2022-11-20T11:12:21;9.37;;;6.43;;
8964;SDS011;4517;49.020;12.066;2022-11-20T11:14:50;6.03;;;5.53;;
8964;SDS011;4517;49.020;12.066;2022-11-20T11:17:27;6.33;;;5.70;;
8964;SDS011;4517;49.020;12.066;2022-11-20T11:20:18;6.03;;;5.43;;
8964;SDS011;4517;49.020;12.066;2022-11-20T11:23:02;6.03;;;5.47;;
8964;SDS011;4517;49.020;12.066;2022-11-20T11:25:30;6.47;;;5.83;;
8964;SDS011;4517;49.020;12.066;2022-11-20T11:28:03;6.97;;;6.10;;
8964;SDS011;4517;49.020;12.066;2022-11-20T11:30:42;6.23;;;5.63;;
8964;SDS011;4517;49.020;12.066;2022-11-20T11:33:10;6.43;;;5.80;;
8964;SDS011;4517;49.020;12.066;2022-11-20T11:35:47;9.20;;;5.80;;
8964;SDS011;4517;49.020;12.066;2022-11-20T11:38:38;8.70;;;6.37;;
8964;SDS011;4517;49.020;12.066;2022-11-20T11:41:06;5.53;;;5.00;;
8964;SDS011;4517;49.020;12.066;2022-11-20T11:43:35;5.33;;;4.83;;
8964;SDS011;4517;49.020;12.066;2022-11-20T11:51:36;6.43;;;5.90;;
8964;SDS011;4517;49.020;12.066;2022-11-20T11:54:23;6.40;;;5.50;;
8964;SDS011;4517;49.020;12.066;2022-11-20T12:00:11;7.63;;;5.70;;
8964;SDS011;4517;49.020;12.066;2022-11-20T12:07:47;6.47;;;5.90;;
8964;SDS011;4517;49.020;12.066;2022-11-20T12:10:37;5.67;;;5.13;;
8964;SDS011;4517;49.020;12.066;2022-11-20T12:16:34;5.63;;;5.13;;
8964;SDS011;4517;49.020;12.066;2022-11-20T12:19:10;5.13;;;4.77;;
8964;SDS011;4517;49.020;12.066;2022-11-20T12:27:28;5.60;;;5.20;;
8964;SDS011;4517;49.020;12.066;2022-11-20T12:32:49;7.03;;;4.90;;
8964;SDS011;4517;49.020;12.066;2022-11-20T12:35:23;5.20;;;4.77;;
8964;SDS011;4517;49.020;12.066;2022-11-20T12:47:22;5.47;;;5.07;;
8964;SDS011;4517;49.020;12.066;2022-11-20T13:07:05;4.50;;;4.20;;
8964;SDS011;4517;49.020;12.066;2022-11-20T13:09:35;5.40;;;4.90;;
8964;SDS011;4517;49.020;12.066;2022-11-20T13:14:45;5.60;;;5.20;;
8964;SDS011;4517;49.020;12.066;2022-11-20T13:17:34;5.77;;;5.20;;
8964;SDS011;4517;49.020;12.066;2022-11-20T13:20:14;5.27;;;4.87;;
8964;SDS011;4517;49.020;12.066;2022-11-20T13:22:49;6.00;;;5.53;;
8964;SDS011;4517;49.020;12.066;2022-11-20T13:25:23;6.40;;;5.80;;
8964;SDS011;4517;49.020;12.066;2022-11-20T13:27:54;5.37;;;5.07;;
8964;SDS011;4517;49.020;12.066;2022-11-20T13:30:27;5.70;;;5.23;;
8964;SDS011;4517;49.020;12.066;2022-11-20T13:35:26;5.30;;;4.80;;
8964;SDS011;4517;49.020;12.066;2022-11-20T13:38:07;4.33;;;4.03;;
8964;SDS011;4517;49.020;12.066;2022-11-20T13:40:55;5.50;;;5.20;;
8964;SDS011;4517;49.020;12.066;2022-11-20T13:43:36;4.80;;;4.50;;
8964;SDS011;4517;49.020;12.066;2022-11-20T13:46:06;4.97;;;4.60;;
8964;SDS011;4517;49.020;12.066;2022-11-20T13:48:43;5.00;;;4.70;;
8964;SDS011;4517;49.020;12.066;2022-11-20T13:53:41;4.83;;;4.53;;
8964;SDS011;4517;49.020;12.066;2022-11-20T14:02:26;4.43;;;4.13;;
8964;SDS011;4517;49.020;12.066;2022-11-20T14:04:57;6.03;;;5.63;;
8964;SDS011;4517;49.020;12.066;2022-11-20T14:07:27;5.53;;;5.13;;
8964;SDS011;4517;49.020;12.066;2022-11-20T14:10:02;5.70;;;5.20;;
8964;SDS011;4517;49.020;12.066;2022-11-20T14:12:29;6.00;;;5.60;;
8964;SDS011;4517;49.020;12.066;2022-11-20T14:14:56;6.70;;;6.10;;
8964;SDS011;4517;49.020;12.066;2022-11-20T14:19:54;5.90;;;5.50;;
8964;SDS011;4517;49.020;12.066;2022-11-20T14:22:25;5.90;;;5.40;;
8964;SDS011;4517;49.020;12.066;2022-11-20T14:25:02;6.27;;;5.77;;
8964;SDS011;4517;49.020;12.066;2022-11-20T14:27:44;5.93;;;5.53;;
8964;SDS011;4517;49.020;12.066;2022-11-20T14:30:18;6.00;;;5.50;;
8964;SDS011;4517;49.020;12.066;2022-11-20T14:32:48;6.33;;;5.80;;
8964;SDS011;4517;49.020;12.066;2022-11-20T14:35:25;7.03;;;6.50;;
8964;SDS011;4517;49.020;12.066;2022-11-20T14:37:56;22.27;;;14.00;;
8964;SDS011;4517;49.020;12.066;2022-11-20T14:40:32;10.10;;;8.50;;
8964;SDS011;4517;49.020;12.066;2022-11-20T14:43:04;7.87;;;7.07;;
8964;SDS011;4517;49.020;12.066;2022-11-20T14:45:48;7.77;;;6.90;;
8964;SDS011;4517;49.020;12.066;2022-11-20T14:48:28;7.80;;;7.03;;
8964;SDS011;4517;49.020;12.066;2022-11-20T14:51:00;6.93;;;6.23;;
8964;SDS011;4517;49.020;12.066;2022-11-20T14:53:26;8.00;;;7.07;;
8964;SDS011;4517;49.020;12.066;2022-11-20T14:55:58;7.50;;;6.90;;
8964;SDS011;4517;49.020;12.066;2022-11-20T14:58:32;6.63;;;6.13;;
8964;SDS011;4517;49.020;12.066;2022-11-20T15:00:59;5.67;;;5.13;;
8964;SDS011;4517;49.020;12.066;2022-11-20T15:03:35;6.53;;;5.93;;
8964;SDS011;4517;49.020;12.066;2022-11-20T15:06:02;6.40;;;5.80;;
8964;SDS011;4517;49.020;12.066;2022-11-20T15:08:28;5.67;;;5.27;;
8964;SDS011;4517;49.020;12.066;2022-11-20T15:10:54;5.90;;;5.40;;
8964;SDS011;4517;49.020;12.066;2022-11-20T15:15:55;7.00;;;6.40;;
8964;SDS011;4517;49.020;12.066;2022-11-20T15:18:27;7.83;;;7.13;;
8964;SDS011;4517;49.020;12.066;2022-11-20T15:20:56;7.07;;;6.33;;
8964;SDS011;4517;49.020;12.066;2022-11-20T15:23:23;11.63;;;10.33;;
8964;SDS011;4517;49.020;12.066;2022-11-20T15:25:50;13.60;;;8.73;;
8964;SDS011;4517;49.020;12.066;2022-11-20T15:28:19;8.40;;;6.30;;
8964;SDS011;4517;49.020;12.066;2022-11-20T15:30:56;8.90;;;8.00;;
8964;SDS011;4517;49.020;12.066;2022-11-20T15:33:22;7.70;;;7.00;;
8964;SDS011;4517;49.020;12.066;2022-11-20T15:35:48;6.00;;;5.50;;
8964;SDS011;4517;49.020;12.066;2022-11-20T15:38:13;5.73;;;5.33;;
8964;SDS011;4517;49.020;12.066;2022-11-20T15:40:39;9.23;;;6.40;;
8964;SDS011;4517;49.020;12.066;2022-11-20T15:43:05;5.83;;;5.43;;
8964;SDS011;4517;49.020;12.066;2022-11-20T15:45:39;5.60;;;5.20;;
8964;SDS011;4517;49.020;12.066;2022-11-20T15:48:29;6.33;;;5.80;;
8964;SDS011;4517;49.020;12.066;2022-11-20T15:53:30;6.60;;;6.10;;
8964;SDS011;4517;49.020;12.066;2022-11-20T15:55:56;6.40;;;5.90;;
8964;SDS011;4517;49.020;12.066;2022-11-20T15:58:22;5.60;;;5.30;;
8964;SDS011;4517;49.020;12.066;2022-11-20T16:00:49;5.53;;;5.20;;
8964;SDS011;4517;49.020;12.066;2022-11-20T16:03:15;5.97;;;5.40;;
8964;SDS011;4517;49.020;12.066;2022-11-20T16:05:41;5.60;;;5.20;;
8964;SDS011;4517;49.020;12.066;2022-11-20T16:08:07;6.77;;;6.27;;
8964;SDS011;4517;49.020;12.066;2022-11-20T16:10:33;6.00;;;5.60;;
8964;SDS011;4517;49.020;12.066;2022-11-20T16:12:58;6.03;;;5.63;;
8964;SDS011;4517;49.020;12.066;2022-11-20T16:15:44;6.10;;;5.70;;
8964;SDS011;4517;49.020;12.066;2022-11-20T16:18:16;6.40;;;5.80;;
8964;SDS011;4517;49.020;12.066;2022-11-20T16:20:44;5.90;;;5.40;;
8964;SDS011;4517;49.020;12.066;2022-11-20T16:23:11;8.23;;;5.47;;
8964;SDS011;4517;49.020;12.066;2022-11-20T16:25:37;5.17;;;4.87;;
8964;SDS011;4517;49.020;12.066;2022-11-20T16:28:03;6.13;;;5.73;;
8964;SDS011;4517;49.020;12.066;2022-11-20T16:30:29;6.47;;;5.87;;
8964;SDS011;4517;49.020;12.066;2022-11-20T16:32:56;8.23;;;7.17;;
8964;SDS011;4517;49.020;12.066;2022-11-20T16:35:22;7.33;;;6.83;;
8964;SDS011;4517;49.020;12.066;2022-11-20T16:37:47;6.20;;;5.70;;
8964;SDS011;4517;49.020;12.066;2022-11-20T16:40:13;8.10;;;7.37;;
8964;SDS011;4517;49.020;12.066;2022-11-20T16:42:39;5.93;;;5.43;;
8964;SDS011;4517;49.020;12.066;2022-11-20T16:45:05;6.87;;;6.17;;
8964;SDS011;4517;49.020;12.066;2022-11-20T16:47:32;6.50;;;5.93;;
8964;SDS011;4517;49.020;12.066;2022-11-20T16:49:59;5.60;;;5.30;;
8964;SDS011;4517;49.020;12.066;2022-11-20T16:52:25;6.07;;;5.63;;
8964;SDS011;4517;49.020;12.066;2022-11-20T16:54:50;6.30;;;5.80;;
8964;SDS011;4517;49.020;12.066;2022-11-20T16:57:16;7.40;;;6.40;;